Time;durP1;ratioP1;P1;durP2;ratioP2;P2;SDS_P1;SDS_P2;PMS_P1;PMS_P2;Temp;Humidity;BMP_temperature;BMP_pressure;BME280_temperature;BME280_humidity;BME280_pressure;Samples;Min_cycle;Max_cycle;Signal;HPM_P1;HPM_P2
2021/11/10 00:00:50;;;;;;;14.97;8.10;;;11.00;99.90;;;;;;5002567;28;20191;-84
2021/11/10 00:03:16;;;;;;;16.13;10.53;;;11.00;99.90;;;;;;4994834;28;20807;-84
2021/11/10 00:05:42;;;;;;;12.67;8.80;;;11.00;99.90;;;;;;4995323;28;20234;-83
2021/11/10 00:08:08;;;;;;;19.87;7.67;;;11.00;99.90;;;;;;4996687;28;20220;-85
2021/11/10 00:10:35;;;;;;;20.23;8.43;;;10.90;99.90;;;;;;4995091;28;20752;-83
2021/11/10 00:13:19;;;;;;;12.70;8.77;;;10.90;99.90;;;;;;4996011;28;20218;-85
2021/11/10 00:15:48;;;;;;;17.03;10.87;;;10.90;99.90;;;;;;4981219;28;20219;-85
2021/11/10 00:18:14;;;;;;;23.63;11.03;;;11.00;99.90;;;;;;4995499;28;20199;-85
2021/11/10 00:20:41;;;;;;;13.23;8.70;;;11.00;99.90;;;;;;4991718;28;20219;-84
2021/11/10 00:23:07;;;;;;;18.70;9.23;;;11.00;99.90;;;;;;4985427;28;20291;-83
2021/11/10 00:25:33;;;;;;;19.47;9.43;;;11.00;99.90;;;;;;4994960;28;20247;-83
2021/11/10 00:27:58;;;;;;;23.70;9.77;;;11.10;99.90;;;;;;4995660;28;20222;-84
2021/11/10 00:30:24;;;;;;;29.33;10.17;;;11.10;99.90;;;;;;4993439;28;20196;-84
2021/11/10 00:32:50;;;;;;;18.90;9.90;;;11.10;99.90;;;;;;4993907;28;20224;-85
2021/11/10 00:35:16;;;;;;;19.47;9.47;;;11.10;99.90;;;;;;4992223;28;20215;-84
2021/11/10 00:37:42;;;;;;;18.53;8.37;;;11.10;99.90;;;;;;4995388;28;21101;-83
2021/11/10 00:40:08;;;;;;;31.83;8.97;;;11.20;99.90;;;;;;4978521;28;20222;-84
2021/11/10 00:42:34;;;;;;;20.63;9.03;;;11.20;99.90;;;;;;4993752;28;20218;-84
2021/11/10 00:44:59;;;;;;;22.07;9.20;;;11.20;99.90;;;;;;4976700;28;20574;-84
2021/11/10 00:47:25;;;;;;;16.43;8.77;;;11.10;99.90;;;;;;4992005;28;20711;-84
2021/11/10 00:49:51;;;;;;;42.07;12.00;;;11.20;99.90;;;;;;4976315;28;20604;-84
2021/11/10 00:52:16;;;;;;;14.53;7.80;;;11.10;99.90;;;;;;4977119;28;20310;-85
2021/11/10 00:54:42;;;;;;;12.73;7.67;;;11.20;99.90;;;;;;4992630;28;20696;-84
2021/11/10 00:57:08;;;;;;;14.90;8.83;;;11.20;99.90;;;;;;4991482;28;20263;-84
2021/11/10 00:59:34;;;;;;;18.60;8.87;;;11.20;99.90;;;;;;4994174;28;20223;-83
2021/11/10 01:01:59;;;;;;;19.00;9.57;;;11.20;99.90;;;;;;4985167;28;20793;-84
2021/11/10 01:04:26;;;;;;;16.27;8.53;;;11.20;99.90;;;;;;4996374;28;20250;-84
2021/11/10 01:06:52;;;;;;;17.27;8.67;;;11.20;99.90;;;;;;4991705;28;20243;-86
2021/11/10 01:09:19;;;;;;;11.30;7.17;;;11.30;99.90;;;;;;4979075;28;20291;-86
2021/11/10 01:11:46;;;;;;;16.67;8.20;;;11.30;99.90;;;;;;5001268;28;20227;-85
2021/11/10 01:14:14;;;;;;;15.27;8.30;;;11.30;99.90;;;;;;4994512;28;20223;-85
2021/11/10 01:16:40;;;;;;;12.27;8.80;;;11.30;99.90;;;;;;4969070;28;20251;-86
2021/11/10 01:19:06;;;;;;;14.10;7.63;;;11.30;99.90;;;;;;4993041;28;20306;-85
2021/11/10 01:21:32;;;;;;;9.50;6.20;;;11.40;99.90;;;;;;4994520;28;20278;-86
2021/11/10 01:23:57;;;;;;;9.63;5.97;;;11.40;99.90;;;;;;4993676;28;20223;-84
2021/11/10 01:26:23;;;;;;;16.53;8.40;;;11.40;99.90;;;;;;4990476;28;20220;-85
2021/11/10 01:28:49;;;;;;;18.10;9.43;;;11.40;99.90;;;;;;4996161;28;21055;-84
2021/11/10 01:31:16;;;;;;;15.13;8.13;;;11.40;99.90;;;;;;4994329;28;20224;-85
2021/11/10 01:33:42;;;;;;;17.33;9.37;;;11.40;99.90;;;;;;4994307;28;20670;-84
2021/11/10 01:36:07;;;;;;;13.17;8.47;;;11.40;99.90;;;;;;4994487;28;20219;-84
2021/11/10 01:38:34;;;;;;;16.80;9.10;;;11.40;99.90;;;;;;4983898;28;20216;-86
2021/11/10 01:40:59;;;;;;;29.47;8.20;;;11.40;99.90;;;;;;4993879;28;20226;-82
2021/11/10 01:43:25;;;;;;;13.53;7.23;;;11.40;99.90;;;;;;4975994;28;20236;-83
2021/11/10 01:45:55;;;;;;;19.00;9.77;;;11.40;99.90;;;;;;4992601;28;20192;-83
2021/11/10 01:48:21;;;;;;;19.27;12.53;;;11.40;99.90;;;;;;4977568;28;20207;-82
2021/11/10 01:50:47;;;;;;;18.40;6.93;;;11.50;99.90;;;;;;4991923;28;20270;-84
2021/11/10 01:53:13;;;;;;;13.60;6.73;;;11.40;99.90;;;;;;4992213;28;20851;-84
2021/11/10 01:55:39;;;;;;;21.37;9.90;;;11.40;99.90;;;;;;4991235;28;20216;-85
2021/11/10 01:58:05;;;;;;;12.17;7.73;;;11.40;99.90;;;;;;5001317;28;20731;-84
2021/11/10 02:00:35;;;;;;;23.17;8.40;;;11.40;99.90;;;;;;4993539;28;20701;-83
2021/11/10 02:03:01;;;;;;;14.67;7.80;;;11.40;99.90;;;;;;4991962;28;20240;-83
2021/11/10 02:05:27;;;;;;;11.30;6.60;;;11.40;99.90;;;;;;4993897;28;20232;-83
2021/11/10 02:07:53;;;;;;;13.23;7.93;;;11.40;99.90;;;;;;4995915;28;20216;-84
2021/11/10 02:10:24;;;;;;;8.97;8.00;;;11.40;99.90;;;;;;4997005;28;20787;-84
2021/11/10 02:12:51;;;;;;;16.93;7.60;;;11.40;99.90;;;;;;4998127;28;20206;-84
2021/11/10 02:15:19;;;;;;;15.37;7.60;;;11.40;99.90;;;;;;4997577;28;20196;-84
2021/11/10 02:17:49;;;;;;;7.33;4.93;;;11.40;99.90;;;;;;4995474;28;20220;-84
2021/11/10 02:20:16;;;;;;;9.03;5.90;;;11.40;99.90;;;;;;4996430;28;20338;-82
2021/11/10 02:22:42;;;;;;;20.37;6.73;;;11.40;99.90;;;;;;4996904;28;20295;-83
2021/11/10 02:25:09;;;;;;;18.57;7.73;;;11.40;99.90;;;;;;5000790;28;20223;-82
2021/11/10 02:27:37;;;;;;;12.77;6.77;;;11.40;99.90;;;;;;4996334;28;21044;-82
2021/11/10 02:30:06;;;;;;;14.47;7.17;;;11.40;99.90;;;;;;4990915;28;20286;-82
2021/11/10 02:32:32;;;;;;;15.03;8.43;;;11.40;99.90;;;;;;4994021;28;20302;-82
2021/11/10 02:34:58;;;;;;;16.90;7.80;;;11.40;99.90;;;;;;4994252;28;20231;-81
2021/11/10 02:37:24;;;;;;;14.00;7.37;;;11.40;99.90;;;;;;4998356;28;20689;-83
2021/11/10 02:39:51;;;;;;;12.13;7.17;;;11.40;99.90;;;;;;4994500;28;20183;-83
2021/11/10 02:42:18;;;;;;;25.43;7.53;;;11.40;99.90;;;;;;4994870;28;20237;-84
2021/11/10 02:44:48;;;;;;;16.50;9.00;;;11.40;99.90;;;;;;4993739;28;20286;-83
2021/11/10 02:47:15;;;;;;;18.27;8.73;;;11.40;99.90;;;;;;4993846;28;20227;-83
2021/11/10 02:49:40;;;;;;;12.27;7.63;;;11.40;99.90;;;;;;4992473;28;20216;-85
2021/11/10 02:52:12;;;;;;;16.60;9.70;;;11.40;99.90;;;;;;4996033;28;20563;-84
2021/11/10 02:54:44;;;;;;;15.03;8.13;;;11.40;99.90;;;;;;4995881;28;20192;-84
2021/11/10 02:57:10;;;;;;;13.43;7.17;;;11.40;99.90;;;;;;4995561;28;20362;-83
2021/11/10 02:59:37;;;;;;;12.07;6.07;;;11.40;99.90;;;;;;4993205;28;20255;-84
2021/11/10 03:02:03;;;;;;;12.17;6.83;;;11.40;99.90;;;;;;4978508;28;20243;-84
2021/11/10 03:04:36;;;;;;;10.47;6.53;;;11.40;99.90;;;;;;5001988;28;20635;-83
2021/11/10 03:07:04;;;;;;;9.87;8.40;;;11.40;99.90;;;;;;4995930;28;20270;-83
2021/11/10 03:09:31;;;;;;;10.40;6.27;;;11.40;99.90;;;;;;4993295;28;20223;-83
2021/11/10 03:11:59;;;;;;;18.40;9.90;;;11.40;99.90;;;;;;4995322;28;20344;-83
2021/11/10 03:14:27;;;;;;;19.23;8.47;;;11.40;99.90;;;;;;4995232;28;20212;-83
2021/11/10 03:16:54;;;;;;;17.57;7.07;;;11.40;99.90;;;;;;4997094;28;20219;-83
2021/11/10 03:19:20;;;;;;;10.67;7.43;;;11.40;99.90;;;;;;4994710;28;20226;-84
2021/11/10 03:21:47;;;;;;;15.57;7.50;;;11.40;99.90;;;;;;4990706;28;20266;-83
2021/11/10 03:24:13;;;;;;;18.93;7.73;;;11.40;99.90;;;;;;4993614;28;20200;-84
2021/11/10 03:26:39;;;;;;;18.40;8.97;;;11.40;99.90;;;;;;4994509;28;20244;-83
2021/11/10 03:29:04;;;;;;;23.93;10.10;;;11.40;99.90;;;;;;4993747;28;20303;-84
2021/11/10 03:31:35;;;;;;;17.40;7.93;;;11.40;99.90;;;;;;4993437;28;20284;-84
2021/11/10 03:34:02;;;;;;;22.83;10.00;;;11.40;99.90;;;;;;4993004;28;20192;-83
2021/11/10 03:36:28;;;;;;;18.07;8.67;;;11.40;99.90;;;;;;4995364;28;20204;-84
2021/11/10 03:38:54;;;;;;;15.83;8.23;;;11.40;99.90;;;;;;4994586;28;20885;-84
2021/11/10 03:41:20;;;;;;;12.67;7.70;;;11.40;99.90;;;;;;5001764;28;20689;-83
2021/11/10 03:43:46;;;;;;;13.87;9.07;;;11.40;99.90;;;;;;4993251;28;20230;-83
2021/11/10 03:46:13;;;;;;;22.43;9.97;;;11.40;99.90;;;;;;4995953;28;20644;-83
2021/11/10 03:48:40;;;;;;;22.20;8.50;;;11.40;99.90;;;;;;4979194;28;20214;-83
2021/11/10 03:51:06;;;;;;;29.70;10.87;;;11.40;99.90;;;;;;4968907;28;20250;-82
2021/11/10 03:53:33;;;;;;;16.00;8.70;;;11.30;99.90;;;;;;4993611;28;20223;-84
2021/11/10 03:55:59;;;;;;;16.90;8.27;;;11.40;99.90;;;;;;4991649;28;20302;-84
2021/11/10 03:58:25;;;;;;;18.00;8.53;;;11.40;99.90;;;;;;4995203;28;20227;-84
2021/11/10 04:00:50;;;;;;;18.70;10.43;;;11.40;99.90;;;;;;4996485;28;20193;-83
2021/11/10 04:03:16;;;;;;;11.53;8.80;;;11.40;99.90;;;;;;4992574;28;20252;-84
2021/11/10 04:05:42;;;;;;;16.17;8.03;;;11.40;99.90;;;;;;4993321;28;20228;-83
2021/11/10 04:08:11;;;;;;;16.17;8.40;;;11.30;99.90;;;;;;4995024;28;20223;-83
2021/11/10 04:10:37;;;;;;;14.93;10.13;;;11.30;99.90;;;;;;4977456;28;20314;-85
2021/11/10 04:13:07;;;;;;;16.63;8.80;;;11.40;99.90;;;;;;4994180;28;20195;-82
2021/11/10 04:15:33;;;;;;;14.47;7.80;;;11.40;99.90;;;;;;4993223;28;20223;-82
2021/11/10 04:18:00;;;;;;;19.97;9.77;;;11.40;99.90;;;;;;4994623;28;20334;-84
2021/11/10 04:20:26;;;;;;;14.23;8.00;;;11.40;99.90;;;;;;4993196;28;20232;-83
2021/11/10 04:22:52;;;;;;;19.33;8.27;;;11.40;99.90;;;;;;4995094;28;20240;-84
2021/11/10 04:25:18;;;;;;;16.70;8.57;;;11.40;99.90;;;;;;4991092;28;20279;-83
2021/11/10 04:27:44;;;;;;;12.67;7.83;;;11.40;99.90;;;;;;4992430;28;20187;-83
2021/11/10 04:30:13;;;;;;;16.23;8.77;;;11.30;99.90;;;;;;4996897;28;20204;-83
2021/11/10 04:32:40;;;;;;;17.10;8.20;;;11.30;99.90;;;;;;4993142;28;20215;-85
2021/11/10 04:35:08;;;;;;;25.03;10.87;;;11.40;99.90;;;;;;4995819;28;20258;-82
2021/11/10 04:37:34;;;;;;;18.93;8.10;;;11.40;99.90;;;;;;4994338;28;20255;-85
2021/11/10 04:40:01;;;;;;;13.97;6.60;;;11.30;99.90;;;;;;4992203;28;20200;-84
2021/11/10 04:42:27;;;;;;;25.77;9.33;;;11.40;99.90;;;;;;4992451;28;20234;-85
2021/11/10 04:44:59;;;;;;;12.77;7.63;;;11.40;99.90;;;;;;4974599;28;20274;-84
2021/11/10 04:47:25;;;;;;;21.00;9.43;;;11.40;99.90;;;;;;4991635;28;20219;-84
2021/11/10 04:49:50;;;;;;;22.03;9.17;;;11.40;99.90;;;;;;4994877;28;21185;-83
2021/11/10 04:52:17;;;;;;;21.50;10.57;;;11.50;99.90;;;;;;4993086;28;20814;-85
2021/11/10 04:54:43;;;;;;;25.87;8.13;;;11.40;99.90;;;;;;4979245;28;20191;-83
2021/11/10 04:57:09;;;;;;;15.70;8.80;;;11.50;99.90;;;;;;4992340;28;20700;-85
2021/11/10 04:59:35;;;;;;;14.97;8.17;;;11.50;99.90;;;;;;4992805;28;20216;-84
2021/11/10 05:04:33;;;;;;;14.83;8.00;;;11.40;99.90;;;;;;4992769;28;20235;-85
2021/11/10 05:07:00;;;;;;;20.23;10.53;;;11.40;99.90;;;;;;4994889;28;20712;-85
2021/11/10 05:09:25;;;;;;;17.23;8.37;;;11.40;99.90;;;;;;4991614;28;20206;-83
2021/11/10 05:11:51;;;;;;;16.67;9.80;;;11.40;99.90;;;;;;4989753;28;20224;-83
2021/11/10 05:14:17;;;;;;;14.57;9.17;;;11.40;99.90;;;;;;4992698;28;20258;-83
2021/11/10 05:16:43;;;;;;;29.27;10.47;;;11.40;99.90;;;;;;4990775;28;20334;-82
2021/11/10 05:19:09;;;;;;;17.70;9.33;;;11.40;99.90;;;;;;4992782;28;20989;-80
2021/11/10 05:21:35;;;;;;;22.33;10.77;;;11.40;99.90;;;;;;4995408;28;20289;-85
2021/11/10 05:24:02;;;;;;;21.20;8.70;;;11.40;99.90;;;;;;4994890;28;20314;-83
2021/11/10 05:26:29;;;;;;;18.20;6.17;;;11.40;99.90;;;;;;4992463;28;20237;-82
2021/11/10 05:28:54;;;;;;;24.03;10.00;;;11.40;99.90;;;;;;4991808;28;20216;-83
2021/11/10 05:31:21;;;;;;;14.97;8.27;;;11.40;99.90;;;;;;4994482;28;20229;-82
2021/11/10 05:33:47;;;;;;;24.60;11.47;;;11.40;99.90;;;;;;4976332;28;20240;-83
2021/11/10 05:36:13;;;;;;;18.53;7.67;;;11.40;99.90;;;;;;4977412;28;20297;-86
2021/11/10 05:38:38;;;;;;;26.83;10.00;;;11.40;99.90;;;;;;4995390;28;20232;-84
2021/11/10 05:41:04;;;;;;;15.13;7.83;;;11.40;99.90;;;;;;4997360;28;20299;-86
2021/11/10 05:43:30;;;;;;;22.97;9.43;;;11.40;99.90;;;;;;4995738;28;20235;-85
2021/11/10 05:45:56;;;;;;;16.73;8.40;;;11.40;99.90;;;;;;4977569;28;20199;-86
2021/11/10 05:48:23;;;;;;;19.27;9.67;;;11.40;99.90;;;;;;4998870;28;20216;-85
2021/11/10 05:50:48;;;;;;;12.47;9.83;;;11.40;99.90;;;;;;4995366;28;20219;-87
2021/11/10 05:53:14;;;;;;;19.07;10.73;;;11.40;99.90;;;;;;4996966;28;20229;-85
2021/11/10 05:55:41;;;;;;;19.50;9.83;;;11.40;99.90;;;;;;4996973;28;20304;-85
2021/11/10 05:58:08;;;;;;;20.57;10.67;;;11.40;99.90;;;;;;4997026;28;20227;-83
2021/11/10 06:00:34;;;;;;;13.77;8.57;;;11.40;99.90;;;;;;4999034;28;20199;-86
2021/11/10 06:03:00;;;;;;;17.60;8.97;;;11.40;99.90;;;;;;4996180;28;20244;-84
2021/11/10 06:05:26;;;;;;;16.33;8.87;;;11.40;99.90;;;;;;4996503;28;20273;-86
2021/11/10 06:07:52;;;;;;;24.27;7.77;;;11.40;99.90;;;;;;4996263;28;20219;-85
2021/11/10 06:10:21;;;;;;;20.43;8.23;;;11.40;99.90;;;;;;4998034;28;20239;-86
2021/11/10 06:12:47;;;;;;;19.33;7.23;;;11.40;99.90;;;;;;4994445;28;20208;-85
2021/11/10 06:15:13;;;;;;;19.13;8.77;;;11.40;99.90;;;;;;4998124;28;20319;-85
2021/11/10 06:17:39;;;;;;;12.83;7.93;;;11.40;99.90;;;;;;4992829;28;20317;-84
2021/11/10 06:20:07;;;;;;;20.10;9.33;;;11.40;99.90;;;;;;4977127;28;20218;-83
2021/11/10 06:22:33;;;;;;;15.67;9.80;;;11.40;99.90;;;;;;4994429;28;20268;-86
2021/11/10 06:24:59;;;;;;;18.17;7.70;;;11.40;99.90;;;;;;4997509;28;20201;-81
2021/11/10 06:27:26;;;;;;;16.00;8.60;;;11.50;99.90;;;;;;4996252;28;20207;-81
2021/11/10 06:29:52;;;;;;;20.13;10.13;;;11.50;99.90;;;;;;4975862;28;20281;-83
2021/11/10 06:32:18;;;;;;;25.13;8.77;;;11.50;99.90;;;;;;4992991;28;20231;-81
2021/11/10 06:34:44;;;;;;;14.13;7.50;;;11.40;99.90;;;;;;4993752;28;20230;-83
2021/11/10 06:37:10;;;;;;;8.53;6.40;;;11.40;99.90;;;;;;4995339;28;20977;-80
2021/11/10 06:39:36;;;;;;;17.00;8.07;;;11.40;99.90;;;;;;4984194;28;20192;-82
2021/11/10 06:42:03;;;;;;;12.83;7.03;;;11.40;99.90;;;;;;4995369;28;20223;-81
2021/11/10 06:44:29;;;;;;;18.07;7.80;;;11.40;99.90;;;;;;4993503;28;20226;-83
2021/11/10 06:46:59;;;;;;;9.10;6.83;;;11.40;99.90;;;;;;4979806;28;20229;-83
2021/11/10 06:49:28;;;;;;;14.17;7.57;;;11.30;99.90;;;;;;4979703;28;20316;-81
2021/11/10 06:51:55;;;;;;;10.07;5.73;;;11.30;99.90;;;;;;4991996;28;20187;-83
2021/11/10 06:54:21;;;;;;;8.97;5.13;;;11.20;99.90;;;;;;4992918;28;20207;-82
2021/11/10 06:56:48;;;;;;;14.23;5.97;;;11.20;99.90;;;;;;4962078;28;20695;-82
2021/11/10 06:59:15;;;;;;;16.07;6.43;;;11.20;99.90;;;;;;4991978;28;20231;-84
2021/11/10 07:01:41;;;;;;;13.37;8.50;;;11.30;99.90;;;;;;4995909;28;20228;-83
2021/11/10 07:04:07;;;;;;;17.43;6.87;;;11.30;99.90;;;;;;4993851;28;20226;-84
2021/11/10 07:06:32;;;;;;;9.57;7.70;;;11.30;99.90;;;;;;4980028;28;20203;-84
2021/11/10 07:08:58;;;;;;;14.27;6.60;;;11.30;99.90;;;;;;4995671;28;20246;-85
2021/11/10 07:11:24;;;;;;;9.53;6.60;;;11.30;99.90;;;;;;4995967;28;20697;-87
2021/11/10 07:13:50;;;;;;;7.87;5.63;;;11.20;99.90;;;;;;4995021;28;20637;-86
2021/11/10 07:16:17;;;;;;;17.17;6.73;;;11.20;99.90;;;;;;4987665;28;20900;-83
2021/11/10 07:18:43;;;;;;;13.23;6.33;;;11.20;99.90;;;;;;4997524;28;20575;-87
2021/11/10 07:21:09;;;;;;;16.87;6.27;;;11.20;99.90;;;;;;4979325;28;20227;-87
2021/11/10 07:23:35;;;;;;;16.47;7.23;;;11.30;99.90;;;;;;4994589;28;20649;-88
2021/11/10 07:26:02;;;;;;;8.77;6.23;;;11.30;99.90;;;;;;4996019;28;21051;-87
2021/11/10 07:28:28;;;;;;;20.20;7.33;;;11.30;99.90;;;;;;4996921;28;20227;-86
2021/11/10 07:30:54;;;;;;;18.03;7.83;;;11.30;99.90;;;;;;4996532;28;20229;-88
2021/11/10 07:33:20;;;;;;;21.53;7.17;;;11.30;99.90;;;;;;4995624;28;20227;-86
2021/11/10 07:35:46;;;;;;;24.70;7.27;;;11.40;99.90;;;;;;4993103;28;20226;-86
2021/11/10 07:38:13;;;;;;;13.83;7.37;;;11.40;99.90;;;;;;4991694;28;20219;-86
2021/11/10 07:40:40;;;;;;;14.30;7.33;;;11.40;99.90;;;;;;4994141;28;20705;-81
2021/11/10 07:43:06;;;;;;;29.53;12.43;;;11.40;99.90;;;;;;4994756;28;20255;-82
2021/11/10 07:45:36;;;;;;;15.67;9.50;;;11.50;99.90;;;;;;4993997;28;20544;-83
2021/11/10 07:48:06;;;;;;;25.00;14.30;;;11.50;99.90;;;;;;4992488;28;20228;-82
2021/11/10 07:50:33;;;;;;;22.00;11.63;;;11.50;99.90;;;;;;4996440;28;20224;-83
2021/11/10 07:52:59;;;;;;;33.90;19.20;;;11.50;99.90;;;;;;4993644;28;20266;-83
2021/11/10 07:55:26;;;;;;;28.33;14.37;;;11.60;99.90;;;;;;4994248;28;20309;-84
2021/11/10 07:57:53;;;;;;;25.63;12.53;;;11.60;99.90;;;;;;4995806;28;20203;-84
2021/11/10 08:00:21;;;;;;;20.03;11.23;;;11.70;99.90;;;;;;4977943;28;20290;-82
2021/11/10 08:02:47;;;;;;;9.97;7.60;;;11.60;99.90;;;;;;4994085;28;20251;-83
2021/11/10 08:05:14;;;;;;;17.87;11.30;;;11.70;99.90;;;;;;4995244;28;20231;-83
2021/11/10 08:07:40;;;;;;;28.30;16.60;;;11.60;99.90;;;;;;4995211;28;20318;-83
2021/11/10 08:10:09;;;;;;;17.63;10.90;;;11.60;99.90;;;;;;4994848;28;20729;-83
2021/11/10 08:12:36;;;;;;;26.93;11.70;;;11.60;99.90;;;;;;4994941;28;20207;-84
2021/11/10 08:15:07;;;;;;;14.90;10.60;;;11.60;99.90;;;;;;4989083;28;20223;-82
2021/11/10 08:17:35;;;;;;;8.10;6.90;;;11.60;99.90;;;;;;4991173;28;20660;-82
2021/11/10 08:20:14;;;;;;;11.90;6.93;;;11.70;99.90;;;;;;4992868;28;20239;-83
2021/11/10 08:22:42;;;;;;;20.57;9.17;;;11.70;99.90;;;;;;4993919;28;20243;-83
2021/11/10 08:25:10;;;;;;;20.70;7.13;;;11.60;99.90;;;;;;4996026;28;20214;-83
2021/11/10 08:27:36;;;;;;;13.10;6.43;;;11.60;99.90;;;;;;4997278;28;20187;-84
2021/11/10 08:30:07;;;;;;;12.03;8.27;;;11.70;99.90;;;;;;5006733;28;20248;-86
2021/11/10 08:32:36;;;;;;;11.80;6.27;;;11.70;99.90;;;;;;4996767;28;20226;-83
2021/11/10 08:35:03;;;;;;;12.47;7.03;;;11.70;99.90;;;;;;4993638;28;20215;-84
2021/11/10 08:37:29;;;;;;;20.40;6.53;;;11.80;99.90;;;;;;4978132;28;20310;-84
2021/11/10 08:39:55;;;;;;;16.97;7.13;;;11.80;99.90;;;;;;4995717;28;20203;-85
2021/11/10 08:42:21;;;;;;;15.37;9.07;;;11.90;99.90;;;;;;4995249;28;20262;-83
2021/11/10 08:44:50;;;;;;;12.93;8.40;;;11.90;99.90;;;;;;4968865;28;20223;-87
2021/11/10 08:47:17;;;;;;;16.77;7.00;;;11.90;99.90;;;;;;4995191;28;20231;-89
2021/11/10 08:49:43;;;;;;;5.90;4.37;;;11.90;99.90;;;;;;4993620;28;20243;-89
2021/11/10 08:52:10;;;;;;;11.17;5.07;;;11.90;99.90;;;;;;4993532;28;21011;-89
2021/11/10 08:54:37;;;;;;;16.17;7.77;;;11.90;99.90;;;;;;4991884;28;20191;-87
2021/11/10 08:57:03;;;;;;;14.43;6.83;;;12.10;99.90;;;;;;4991831;28;20709;-88
2021/11/10 08:59:30;;;;;;;14.33;7.00;;;12.20;99.90;;;;;;4993662;28;20331;-88
2021/11/10 09:01:57;;;;;;;20.77;8.10;;;12.30;99.90;;;;;;4993301;28;21348;-91
2021/11/10 09:04:24;;;;;;;11.63;8.20;;;12.50;99.90;;;;;;4992437;28;20239;-88
2021/11/10 09:06:50;;;;;;;17.10;8.23;;;12.60;99.90;;;;;;4975881;28;20195;-89
2021/11/10 09:09:17;;;;;;;14.40;7.43;;;12.70;99.90;;;;;;4997652;28;20283;-89
2021/11/10 09:11:49;;;;;;;14.83;7.23;;;12.80;99.90;;;;;;4995309;28;20502;-88
2021/11/10 09:14:15;;;;;;;18.50;8.03;;;13.00;99.90;;;;;;4995806;28;20279;-86
2021/11/10 09:16:42;;;;;;;15.87;7.70;;;13.00;99.90;;;;;;4986357;28;20708;-88
2021/11/10 09:19:09;;;;;;;15.90;7.17;;;13.00;99.90;;;;;;4995182;28;20231;-87
2021/11/10 09:21:36;;;;;;;15.30;9.47;;;13.30;99.90;;;;;;4970198;28;20210;-87
2021/11/10 09:24:02;;;;;;;18.10;7.80;;;13.40;99.90;;;;;;4992198;28;20227;-88
2021/11/10 09:26:27;;;;;;;12.73;8.13;;;13.50;99.90;;;;;;4996267;28;20985;-87
2021/11/10 09:28:54;;;;;;;23.10;8.03;;;13.50;99.90;;;;;;4958177;28;20799;-88
2021/11/10 09:31:22;;;;;;;10.70;6.53;;;13.70;99.90;;;;;;4976140;28;20220;-87
2021/11/10 09:33:49;;;;;;;12.27;6.80;;;13.60;99.90;;;;;;4994444;28;20219;-91
2021/11/10 09:36:15;;;;;;;11.93;6.93;;;13.60;99.90;;;;;;4994741;28;20188;-87
2021/11/10 09:38:41;;;;;;;20.00;8.80;;;13.70;99.90;;;;;;4995747;28;20234;-87
2021/11/10 09:41:08;;;;;;;13.90;7.27;;;13.90;99.90;;;;;;4976100;28;20705;-87
2021/11/10 09:43:37;;;;;;;11.73;6.93;;;13.90;99.90;;;;;;4994348;28;20239;-87
2021/11/10 09:46:04;;;;;;;23.00;6.83;;;13.80;99.90;;;;;;4996019;28;20202;-89
2021/11/10 09:48:29;;;;;;;14.00;7.20;;;13.70;99.90;;;;;;4979687;28;20223;-88
2021/11/10 09:50:56;;;;;;;19.97;8.37;;;13.70;99.90;;;;;;4980802;28;20251;-89
2021/11/10 09:53:22;;;;;;;12.03;5.37;;;13.70;99.90;;;;;;4999197;28;20307;-88
2021/11/10 09:55:49;;;;;;;9.87;5.83;;;13.60;99.90;;;;;;4998141;28;20220;-89
2021/11/10 09:58:15;;;;;;;19.50;6.93;;;13.80;99.90;;;;;;4981928;28;20222;-88
2021/11/10 10:00:53;;;;;;;15.13;7.47;;;13.80;99.90;;;;;;4978910;28;20196;-86
2021/11/10 10:03:19;;;;;;;12.93;5.93;;;13.80;99.90;;;;;;5006423;28;20247;-85
2021/11/10 10:05:47;;;;;;;13.30;7.37;;;13.80;99.90;;;;;;5004278;28;20221;-88
2021/11/10 10:08:15;;;;;;;14.07;6.30;;;13.70;99.90;;;;;;5005457;28;20535;-87
2021/11/10 10:10:41;;;;;;;14.77;6.63;;;13.80;99.90;;;;;;5003725;28;20231;-86
2021/11/10 10:13:08;;;;;;;20.77;6.90;;;14.00;99.90;;;;;;4998799;28;20223;-87
2021/11/10 10:15:36;;;;;;;8.50;6.17;;;14.00;99.90;;;;;;4980642;28;20214;-87
2021/11/10 10:18:11;;;;;;;11.90;6.50;;;14.10;99.90;;;;;;4994306;28;20302;-87
2021/11/10 10:20:38;;;;;;;13.77;6.17;;;13.90;99.90;;;;;;4986255;28;20593;-86
2021/11/10 10:23:08;;;;;;;9.37;5.67;;;13.80;99.90;;;;;;4993487;28;20286;-88
2021/11/10 10:25:57;;;;;;;10.77;5.10;;;13.70;99.90;;;;;;4994509;28;20214;-88
2021/11/10 10:28:34;;;;;;;13.67;5.77;;;13.60;99.90;;;;;;4998255;28;20219;-88
2021/11/10 10:31:13;;;;;;;10.67;5.80;;;13.60;99.90;;;;;;5003143;28;20183;-88
2021/11/10 10:33:42;;;;;;;9.63;5.43;;;13.50;99.90;;;;;;5004270;28;20201;-87
2021/11/10 10:36:16;;;;;;;14.03;6.70;;;13.30;99.90;;;;;;4994507;28;20238;-88
2021/11/10 10:38:48;;;;;;;9.67;5.87;;;13.30;99.90;;;;;;5004974;28;20592;-86
2021/11/10 10:41:17;;;;;;;7.13;5.47;;;13.30;99.90;;;;;;5004710;28;20306;-87
2021/11/10 10:43:47;;;;;;;10.27;4.70;;;13.40;99.90;;;;;;5004166;28;20240;-85
2021/11/10 10:46:13;;;;;;;12.10;6.17;;;13.30;99.90;;;;;;5007697;28;20662;-88
2021/11/10 10:48:39;;;;;;;8.43;5.53;;;13.40;99.90;;;;;;5015875;28;20207;-86
2021/11/10 10:51:10;;;;;;;12.53;6.40;;;13.30;99.90;;;;;;4992679;28;20304;-87
2021/11/10 10:53:36;;;;;;;10.63;5.53;;;13.30;99.90;;;;;;5007609;28;20223;-88
2021/11/10 10:56:28;;;;;;;7.60;4.33;;;13.20;99.90;;;;;;5003828;28;20234;-89
2021/11/10 10:59:05;;;;;;;8.73;4.27;;;13.20;99.90;;;;;;5002745;28;20227;-88
2021/11/10 11:01:38;;;;;;;12.87;5.23;;;13.10;99.90;;;;;;5002989;28;20230;-87
2021/11/10 11:04:06;;;;;;;8.70;5.43;;;13.00;99.90;;;;;;4990448;28;20304;-87
2021/11/10 11:06:43;;;;;;;11.47;5.77;;;13.00;99.90;;;;;;4987570;28;20257;-87
2021/11/10 11:09:21;;;;;;;10.13;5.57;;;13.00;99.90;;;;;;4985846;28;20216;-86
2021/11/10 11:11:58;;;;;;;15.33;6.83;;;12.90;99.90;;;;;;4987588;28;20266;-87
2021/11/10 11:14:52;;;;;;;12.13;5.20;;;12.90;99.90;;;;;;4986401;28;20603;-87
2021/11/10 11:17:18;;;;;;;16.17;7.30;;;12.90;99.90;;;;;;4979160;28;20215;-86
2021/11/10 11:20:15;;;;;;;15.63;6.47;;;12.90;99.90;;;;;;4986252;28;20254;-84
2021/11/10 11:22:41;;;;;;;7.03;5.23;;;12.90;99.90;;;;;;4986096;28;20239;-85
2021/11/10 11:25:19;;;;;;;16.03;5.63;;;12.80;99.90;;;;;;5000239;28;20224;-87
2021/11/10 11:27:57;;;;;;;9.10;6.60;;;12.80;99.90;;;;;;4985661;28;20286;-86
2021/11/10 11:30:28;;;;;;;15.30;6.13;;;12.90;99.90;;;;;;4984989;28;20204;-86
2021/11/10 11:32:56;;;;;;;13.60;6.50;;;13.00;99.90;;;;;;4982931;28;20215;-86
2021/11/10 11:35:30;;;;;;;7.17;5.47;;;12.90;99.90;;;;;;4983748;28;20216;-86
2021/11/10 11:38:08;;;;;;;8.43;5.73;;;12.80;99.90;;;;;;4984919;28;20223;-87
2021/11/10 11:40:35;;;;;;;10.87;7.03;;;12.80;99.90;;;;;;4986569;28;20239;-88
2021/11/10 11:43:03;;;;;;;12.53;5.87;;;12.90;99.90;;;;;;4991044;28;20227;-84
2021/11/10 11:45:32;;;;;;;12.50;6.37;;;12.80;99.90;;;;;;4988791;28;20219;-84
2021/11/10 11:47:59;;;;;;;14.43;6.20;;;12.90;99.90;;;;;;4995341;28;20723;-85
2021/11/10 11:50:25;;;;;;;8.77;5.50;;;12.90;99.90;;;;;;4991795;28;20901;-86
2021/11/10 11:52:52;;;;;;;11.30;4.23;;;12.80;99.90;;;;;;4964394;28;20309;-84
2021/11/10 11:55:55;;;;;;;9.90;6.23;;;12.80;99.90;;;;;;4996602;28;20223;-83
2021/11/10 11:58:29;;;;;;;9.93;6.40;;;12.80;99.90;;;;;;4986483;28;20359;-85
2021/11/10 12:01:00;;;;;;;7.60;5.50;;;12.90;99.90;;;;;;4987715;28;20266;-84
2021/11/10 12:03:33;;;;;;;13.57;5.27;;;12.80;99.90;;;;;;4988010;28;20243;-86
2021/11/10 12:06:02;;;;;;;9.23;6.37;;;12.80;99.90;;;;;;4992515;28;20219;-84
2021/11/10 12:08:45;;;;;;;9.93;5.40;;;12.80;99.90;;;;;;4988589;28;20756;-86
2021/11/10 12:11:40;;;;;;;11.43;6.93;;;12.80;99.90;;;;;;4988384;28;20300;-85
2021/11/10 12:14:18;;;;;;;10.30;6.67;;;12.70;99.90;;;;;;4991128;28;20223;-84
2021/11/10 12:17:04;;;;;;;12.20;7.77;;;12.60;99.90;;;;;;5007539;28;20239;-87
2021/11/10 12:19:40;;;;;;;11.33;6.87;;;12.60;99.90;;;;;;4987622;28;20564;-84
2021/11/10 12:22:18;;;;;;;8.53;5.97;;;12.60;99.90;;;;;;4987271;28;20236;-83
2021/11/10 12:24:51;;;;;;;18.07;7.73;;;12.60;99.90;;;;;;4994405;28;20191;-84
2021/11/10 12:27:20;;;;;;;16.47;9.37;;;12.60;99.90;;;;;;4984862;28;20216;-84
2021/11/10 12:29:58;;;;;;;17.27;8.67;;;12.60;99.90;;;;;;4987749;28;20215;-85
2021/11/10 12:32:42;;;;;;;17.07;8.03;;;12.50;99.90;;;;;;4987433;28;20219;-85
2021/11/10 12:35:21;;;;;;;14.53;7.73;;;12.60;99.90;;;;;;4987526;28;20242;-86
2021/11/10 12:37:53;;;;;;;19.40;8.10;;;12.60;99.90;;;;;;4987331;28;20216;-82
2021/11/10 12:40:27;;;;;;;12.23;7.20;;;12.70;99.90;;;;;;4963724;28;20223;-84
2021/11/10 12:43:02;;;;;;;12.60;8.10;;;12.70;99.90;;;;;;4995079;28;20223;-82
2021/11/10 12:45:32;;;;;;;14.73;8.37;;;12.70;99.90;;;;;;4994821;28;20303;-83